Belmont, Washington
Current Conditions -  °F | °C
As of 4:53 AM on Monday 20 Oct 2014 (Local Time) from KPUW Reporting Station
Clear Clear  
Wind Chill: 54°   Ceiling: Unl
Heat Index: 54°   Visibility: 10mi
Dew Point: 38°   Wind: 13mph
Humidity: 55%   Direction: 110°ESE
Pressure: 29.77"   Gusts: NA
Location:  47.09°N, 117.16°W
Report Text: KPUW 201153Z AUTO 11011KT 10SM CLR 12/03 A2977 RMK AO2 SLP072 T01220033 10133 20117 50001
Loading
Personal Weather Stations






























Interactive Weather Map
Tropical Storm Tracking
New forecast layout! Learn more

10-Day Weather Forecast

Advertisements
Track Severe Weather on mobile